sensor_id;sensor_type;location;lat;lon;timestamp;temperature;humidity
5723;DHT22;2886;49.722;8.612;2023-10-08T00:01:08;17.20;94.70
5723;DHT22;2886;49.722;8.612;2023-10-08T00:03:38;17.10;94.70
5723;DHT22;2886;49.722;8.612;2023-10-08T00:06:04;17.20;94.80
5723;DHT22;2886;49.722;8.612;2023-10-08T00:08:39;17.10;94.70
5723;DHT22;2886;49.722;8.612;2023-10-08T00:11:05;17.10;94.50
5723;DHT22;2886;49.722;8.612;2023-10-08T00:13:33;17.20;94.70
5723;DHT22;2886;49.722;8.612;2023-10-08T00:16:13;17.10;94.80
5723;DHT22;2886;49.722;8.612;2023-10-08T00:18:43;17.20;94.90
5723;DHT22;2886;49.722;8.612;2023-10-08T00:21:15;17.20;94.80
5723;DHT22;2886;49.722;8.612;2023-10-08T00:23:40;17.20;95.00
5723;DHT22;2886;49.722;8.612;2023-10-08T00:26:14;17.20;94.80
5723;DHT22;2886;49.722;8.612;2023-10-08T00:28:44;17.20;94.80
5723;DHT22;2886;49.722;8.612;2023-10-08T00:31:14;17.20;95.00
5723;DHT22;2886;49.722;8.612;2023-10-08T00:33:43;17.20;95.40
5723;DHT22;2886;49.722;8.612;2023-10-08T00:36:10;17.20;95.00
5723;DHT22;2886;49.722;8.612;2023-10-08T00:38:46;17.10;95.00
5723;DHT22;2886;49.722;8.612;2023-10-08T00:41:17;17.20;95.00
5723;DHT22;2886;49.722;8.612;2023-10-08T00:43:47;17.10;95.20
5723;DHT22;2886;49.722;8.612;2023-10-08T00:46:16;17.10;95.20
5723;DHT22;2886;49.722;8.612;2023-10-08T00:49:02;17.00;95.30
5723;DHT22;2886;49.722;8.612;2023-10-08T00:51:46;17.00;95.40
5723;DHT22;2886;49.722;8.612;2023-10-08T00:54:24;17.00;95.60
5723;DHT22;2886;49.722;8.612;2023-10-08T00:56:55;17.00;95.30
5723;DHT22;2886;49.722;8.612;2023-10-08T00:59:26;17.00;95.40
5723;DHT22;2886;49.722;8.612;2023-10-08T01:01:52;17.00;95.60
5723;DHT22;2886;49.722;8.612;2023-10-08T01:04:25;17.00;95.70
5723;DHT22;2886;49.722;8.612;2023-10-08T01:06:59;16.90;95.90
5723;DHT22;2886;49.722;8.612;2023-10-08T01:09:27;16.90;95.90
5723;DHT22;2886;49.722;8.612;2023-10-08T01:12:13;16.90;96.00
5723;DHT22;2886;49.722;8.612;2023-10-08T01:14:46;16.90;96.20
5723;DHT22;2886;49.722;8.612;2023-10-08T01:17:14;16.90;96.00
5723;DHT22;2886;49.722;8.612;2023-10-08T01:19:41;16.90;96.10
5723;DHT22;2886;49.722;8.612;2023-10-08T01:22:13;16.90;96.70
5723;DHT22;2886;49.722;8.612;2023-10-08T01:24:44;16.90;96.50
5723;DHT22;2886;49.722;8.612;2023-10-08T01:27:13;17.00;96.20
5723;DHT22;2886;49.722;8.612;2023-10-08T01:29:46;17.00;96.30
5723;DHT22;2886;49.722;8.612;2023-10-08T01:32:11;16.90;96.40
5723;DHT22;2886;49.722;8.612;2023-10-08T01:34:41;16.90;96.70
5723;DHT22;2886;49.722;8.612;2023-10-08T01:37:15;16.90;97.10
5723;DHT22;2886;49.722;8.612;2023-10-08T01:39:47;16.90;97.10
5723;DHT22;2886;49.722;8.612;2023-10-08T01:42:15;16.80;97.20
5723;DHT22;2886;49.722;8.612;2023-10-08T01:44:49;16.80;97.20
5723;DHT22;2886;49.722;8.612;2023-10-08T01:47:16;16.80;97.30
5723;DHT22;2886;49.722;8.612;2023-10-08T01:49:42;16.70;97.40
5723;DHT22;2886;49.722;8.612;2023-10-08T01:52:10;16.70;97.30
5723;DHT22;2886;49.722;8.612;2023-10-08T01:54:50;16.70;97.30
5723;DHT22;2886;49.722;8.612;2023-10-08T01:57:19;16.60;97.20
5723;DHT22;2886;49.722;8.612;2023-10-08T01:59:45;16.60;97.40
5723;DHT22;2886;49.722;8.612;2023-10-08T02:02:11;16.60;97.70
5723;DHT22;2886;49.722;8.612;2023-10-08T02:04:38;16.60;97.60
5723;DHT22;2886;49.722;8.612;2023-10-08T02:07:03;16.60;98.00
5723;DHT22;2886;49.722;8.612;2023-10-08T02:09:30;16.60;98.00
5723;DHT22;2886;49.722;8.612;2023-10-08T02:11:56;16.60;98.10
5723;DHT22;2886;49.722;8.612;2023-10-08T02:14:22;16.50;99.00
5723;DHT22;2886;49.722;8.612;2023-10-08T02:16:49;16.50;99.20
5723;DHT22;2886;49.722;8.612;2023-10-08T02:19:18;16.40;99.40
5723;DHT22;2886;49.722;8.612;2023-10-08T02:21:55;16.40;99.60
5723;DHT22;2886;49.722;8.612;2023-10-08T02:24:22;16.30;99.90
5723;DHT22;2886;49.722;8.612;2023-10-08T02:26:53;16.30;99.90
5723;DHT22;2886;49.722;8.612;2023-10-08T02:29:28;16.20;99.90
5723;DHT22;2886;49.722;8.612;2023-10-08T02:31:58;16.20;99.90
5723;DHT22;2886;49.722;8.612;2023-10-08T02:34:25;16.10;99.90
5723;DHT22;2886;49.722;8.612;2023-10-08T02:36:50;16.10;99.90
5723;DHT22;2886;49.722;8.612;2023-10-08T02:39:17;16.10;99.90
5723;DHT22;2886;49.722;8.612;2023-10-08T02:41:52;16.10;99.90
5723;DHT22;2886;49.722;8.612;2023-10-08T02:44:18;16.00;99.90
5723;DHT22;2886;49.722;8.612;2023-10-08T02:46:48;16.00;99.90
5723;DHT22;2886;49.722;8.612;2023-10-08T02:49:15;16.10;99.90
5723;DHT22;2886;49.722;8.612;2023-10-08T02:51:46;16.10;99.90
5723;DHT22;2886;49.722;8.612;2023-10-08T02:54:12;16.10;99.90
5723;DHT22;2886;49.722;8.612;2023-10-08T02:56:47;16.10;99.90
5723;DHT22;2886;49.722;8.612;2023-10-08T02:59:14;16.00;99.90
5723;DHT22;2886;49.722;8.612;2023-10-08T03:01:40;16.10;99.90
5723;DHT22;2886;49.722;8.612;2023-10-08T03:04:07;16.00;99.90
5723;DHT22;2886;49.722;8.612;2023-10-08T03:06:43;16.00;99.90
5723;DHT22;2886;49.722;8.612;2023-10-08T03:09:08;16.00;99.90
5723;DHT22;2886;49.722;8.612;2023-10-08T03:11:34;16.00;99.90
5723;DHT22;2886;49.722;8.612;2023-10-08T03:14:02;15.90;99.90
5723;DHT22;2886;49.722;8.612;2023-10-08T03:16:28;16.00;99.90
5723;DHT22;2886;49.722;8.612;2023-10-08T03:19:02;16.00;99.90
5723;DHT22;2886;49.722;8.612;2023-10-08T03:21:31;15.90;99.90
5723;DHT22;2886;49.722;8.612;2023-10-08T03:24:02;15.90;99.90
5723;DHT22;2886;49.722;8.612;2023-10-08T03:26:38;15.90;99.90
5723;DHT22;2886;49.722;8.612;2023-10-08T03:29:05;15.90;99.90
5723;DHT22;2886;49.722;8.612;2023-10-08T03:31:33;15.90;99.90
5723;DHT22;2886;49.722;8.612;2023-10-08T03:34:15;15.80;99.90
5723;DHT22;2886;49.722;8.612;2023-10-08T03:36:41;15.80;99.90
5723;DHT22;2886;49.722;8.612;2023-10-08T03:39:11;15.80;99.90
5723;DHT22;2886;49.722;8.612;2023-10-08T03:41:39;15.80;99.90
5723;DHT22;2886;49.722;8.612;2023-10-08T03:44:05;15.80;99.90
5723;DHT22;2886;49.722;8.612;2023-10-08T03:46:38;15.80;99.90
5723;DHT22;2886;49.722;8.612;2023-10-08T03:49:13;15.80;99.90
5723;DHT22;2886;49.722;8.612;2023-10-08T03:51:48;15.80;99.90
5723;DHT22;2886;49.722;8.612;2023-10-08T03:54:20;15.80;99.90
5723;DHT22;2886;49.722;8.612;2023-10-08T03:56:59;15.80;99.90
5723;DHT22;2886;49.722;8.612;2023-10-08T03:59:26;15.80;99.90
5723;DHT22;2886;49.722;8.612;2023-10-08T04:02:01;15.80;99.90
5723;DHT22;2886;49.722;8.612;2023-10-08T04:04:42;15.80;99.90
5723;DHT22;2886;49.722;8.612;2023-10-08T04:07:21;15.70;99.90
5723;DHT22;2886;49.722;8.612;2023-10-08T04:09:52;15.70;99.90
5723;DHT22;2886;49.722;8.612;2023-10-08T04:12:31;15.60;99.90
5723;DHT22;2886;49.722;8.612;2023-10-08T04:15:03;15.60;99.90
5723;DHT22;2886;49.722;8.612;2023-10-08T04:17:34;15.60;99.90
5723;DHT22;2886;49.722;8.612;2023-10-08T04:20:13;15.60;99.90
5723;DHT22;2886;49.722;8.612;2023-10-08T04:22:57;15.60;99.90
5723;DHT22;2886;49.722;8.612;2023-10-08T04:25:26;15.60;99.90
5723;DHT22;2886;49.722;8.612;2023-10-08T04:27:54;15.50;99.90
5723;DHT22;2886;49.722;8.612;2023-10-08T04:30:20;15.50;99.90
5723;DHT22;2886;49.722;8.612;2023-10-08T04:32:47;15.40;99.90
5723;DHT22;2886;49.722;8.612;2023-10-08T04:35:18;15.50;99.90
5723;DHT22;2886;49.722;8.612;2023-10-08T04:37:45;15.40;99.90
5723;DHT22;2886;49.722;8.612;2023-10-08T04:40:16;15.40;99.90
5723;DHT22;2886;49.722;8.612;2023-10-08T04:42:42;15.40;99.90
5723;DHT22;2886;49.722;8.612;2023-10-08T04:45:13;15.40;99.90
5723;DHT22;2886;49.722;8.612;2023-10-08T04:47:40;15.50;99.90
5723;DHT22;2886;49.722;8.612;2023-10-08T04:50:08;15.40;99.90
5723;DHT22;2886;49.722;8.612;2023-10-08T04:52:40;15.40;99.90
5723;DHT22;2886;49.722;8.612;2023-10-08T04:55:11;15.40;99.90
5723;DHT22;2886;49.722;8.612;2023-10-08T04:57:46;15.50;99.90
5723;DHT22;2886;49.722;8.612;2023-10-08T05:00:12;15.50;99.90
5723;DHT22;2886;49.722;8.612;2023-10-08T05:02:41;15.60;99.90
5723;DHT22;2886;49.722;8.612;2023-10-08T05:05:15;15.60;99.90
5723;DHT22;2886;49.722;8.612;2023-10-08T05:07:41;15.60;99.90
5723;DHT22;2886;49.722;8.612;2023-10-08T05:10:09;15.60;99.90
5723;DHT22;2886;49.722;8.612;2023-10-08T05:12:35;15.50;99.90
5723;DHT22;2886;49.722;8.612;2023-10-08T05:15:11;15.50;99.90
5723;DHT22;2886;49.722;8.612;2023-10-08T05:17:45;15.50;99.90
5723;DHT22;2886;49.722;8.612;2023-10-08T05:20:17;15.40;99.90
5723;DHT22;2886;49.722;8.612;2023-10-08T05:22:55;15.40;99.90
5723;DHT22;2886;49.722;8.612;2023-10-08T05:25:31;15.50;99.90
5723;DHT22;2886;49.722;8.612;2023-10-08T05:28:23;15.40;99.90
5723;DHT22;2886;49.722;8.612;2023-10-08T05:30:52;15.40;99.90
5723;DHT22;2886;49.722;8.612;2023-10-08T05:33:30;15.30;99.90
5723;DHT22;2886;49.722;8.612;2023-10-08T05:36:16;15.40;99.90
5723;DHT22;2886;49.722;8.612;2023-10-08T05:38:53;15.40;99.90
5723;DHT22;2886;49.722;8.612;2023-10-08T05:41:29;15.40;99.90
5723;DHT22;2886;49.722;8.612;2023-10-08T05:44:05;15.40;99.90
5723;DHT22;2886;49.722;8.612;2023-10-08T05:46:49;15.50;99.90
5723;DHT22;2886;49.722;8.612;2023-10-08T05:49:32;15.50;99.90
5723;DHT22;2886;49.722;8.612;2023-10-08T05:51:58;15.60;99.90
5723;DHT22;2886;49.722;8.612;2023-10-08T05:54:31;15.60;99.90
5723;DHT22;2886;49.722;8.612;2023-10-08T05:57:04;15.60;99.90
5723;DHT22;2886;49.722;8.612;2023-10-08T05:59:43;15.60;99.90
5723;DHT22;2886;49.722;8.612;2023-10-08T06:02:40;15.70;99.90
5723;DHT22;2886;49.722;8.612;2023-10-08T06:05:12;15.70;99.90
5723;DHT22;2886;49.722;8.612;2023-10-08T06:07:52;15.70;99.90
5723;DHT22;2886;49.722;8.612;2023-10-08T06:10:26;15.60;99.90
5723;DHT22;2886;49.722;8.612;2023-10-08T06:13:05;15.70;99.90
5723;DHT22;2886;49.722;8.612;2023-10-08T06:18:28;15.60;99.90
5723;DHT22;2886;49.722;8.612;2023-10-08T06:20:59;15.70;99.90
5723;DHT22;2886;49.722;8.612;2023-10-08T06:23:26;15.70;99.90
5723;DHT22;2886;49.722;8.612;2023-10-08T06:25:54;15.80;99.90
5723;DHT22;2886;49.722;8.612;2023-10-08T06:28:25;15.80;99.90
5723;DHT22;2886;49.722;8.612;2023-10-08T06:30:55;15.90;99.90
5723;DHT22;2886;49.722;8.612;2023-10-08T06:33:23;15.90;99.90
5723;DHT22;2886;49.722;8.612;2023-10-08T06:35:51;15.90;99.90
5723;DHT22;2886;49.722;8.612;2023-10-08T06:38:35;16.00;99.90
5723;DHT22;2886;49.722;8.612;2023-10-08T06:41:04;16.00;99.90
5723;DHT22;2886;49.722;8.612;2023-10-08T06:43:40;16.00;99.90
5723;DHT22;2886;49.722;8.612;2023-10-08T06:46:09;16.10;99.90
5723;DHT22;2886;49.722;8.612;2023-10-08T06:48:38;16.00;99.90
5723;DHT22;2886;49.722;8.612;2023-10-08T06:51:11;16.00;99.90
5723;DHT22;2886;49.722;8.612;2023-10-08T06:53:40;16.00;99.90
5723;DHT22;2886;49.722;8.612;2023-10-08T06:56:06;16.00;99.90
5723;DHT22;2886;49.722;8.612;2023-10-08T06:58:35;16.00;99.90
5723;DHT22;2886;49.722;8.612;2023-10-08T07:01:01;16.00;99.90
5723;DHT22;2886;49.722;8.612;2023-10-08T07:03:35;16.10;99.90
5723;DHT22;2886;49.722;8.612;2023-10-08T07:06:03;16.20;99.90
5723;DHT22;2886;49.722;8.612;2023-10-08T07:08:42;16.40;99.90
5723;DHT22;2886;49.722;8.612;2023-10-08T07:11:09;16.80;99.90
5723;DHT22;2886;49.722;8.612;2023-10-08T07:13:34;17.00;99.20
5723;DHT22;2886;49.722;8.612;2023-10-08T07:16:02;17.20;98.10
5723;DHT22;2886;49.722;8.612;2023-10-08T07:18:29;17.30;98.10
5723;DHT22;2886;49.722;8.612;2023-10-08T07:20:58;17.30;97.70
5723;DHT22;2886;49.722;8.612;2023-10-08T07:23:28;17.30;98.00
5723;DHT22;2886;49.722;8.612;2023-10-08T07:26:03;17.30;98.30
5723;DHT22;2886;49.722;8.612;2023-10-08T07:28:44;17.20;98.00
5723;DHT22;2886;49.722;8.612;2023-10-08T07:31:14;17.30;98.30
5723;DHT22;2886;49.722;8.612;2023-10-08T07:33:47;17.30;98.30
5723;DHT22;2886;49.722;8.612;2023-10-08T07:36:13;17.40;98.10
5723;DHT22;2886;49.722;8.612;2023-10-08T07:38:43;17.50;98.20
5723;DHT22;2886;49.722;8.612;2023-10-08T07:41:09;17.50;97.80
5723;DHT22;2886;49.722;8.612;2023-10-08T07:43:41;17.60;97.50
5723;DHT22;2886;49.722;8.612;2023-10-08T07:46:11;17.70;97.60
5723;DHT22;2886;49.722;8.612;2023-10-08T07:48:39;17.90;97.30
5723;DHT22;2886;49.722;8.612;2023-10-08T07:51:08;18.10;96.50
5723;DHT22;2886;49.722;8.612;2023-10-08T07:53:33;18.40;95.70
5723;DHT22;2886;49.722;8.612;2023-10-08T07:56:08;18.60;95.40
5723;DHT22;2886;49.722;8.612;2023-10-08T07:58:35;18.70;94.50
5723;DHT22;2886;49.722;8.612;2023-10-08T08:01:05;18.70;93.40
5723;DHT22;2886;49.722;8.612;2023-10-08T08:03:33;18.70;93.30
5723;DHT22;2886;49.722;8.612;2023-10-08T08:06:00;18.60;93.60
5723;DHT22;2886;49.722;8.612;2023-10-08T08:08:26;18.60;94.30
5723;DHT22;2886;49.722;8.612;2023-10-08T08:10:53;18.60;93.80
5723;DHT22;2886;49.722;8.612;2023-10-08T08:13:28;18.60;93.90
5723;DHT22;2886;49.722;8.612;2023-10-08T08:15:55;18.60;94.10
5723;DHT22;2886;49.722;8.612;2023-10-08T08:18:25;18.60;93.80
5723;DHT22;2886;49.722;8.612;2023-10-08T08:20:51;18.60;93.70
5723;DHT22;2886;49.722;8.612;2023-10-08T08:23:18;18.60;93.60
5723;DHT22;2886;49.722;8.612;2023-10-08T08:25:44;18.60;93.90
5723;DHT22;2886;49.722;8.612;2023-10-08T08:28:33;18.60;93.90
5723;DHT22;2886;49.722;8.612;2023-10-08T08:31:03;18.50;94.10
5723;DHT22;2886;49.722;8.612;2023-10-08T08:33:55;18.50;94.40
5723;DHT22;2886;49.722;8.612;2023-10-08T08:36:35;18.40;94.40
5723;DHT22;2886;49.722;8.612;2023-10-08T08:39:05;18.50;94.10
5723;DHT22;2886;49.722;8.612;2023-10-08T08:41:37;18.50;94.20
5723;DHT22;2886;49.722;8.612;2023-10-08T08:44:03;18.60;94.30
5723;DHT22;2886;49.722;8.612;2023-10-08T08:46:36;18.70;93.90
5723;DHT22;2886;49.722;8.612;2023-10-08T08:49:04;18.80;93.80
5723;DHT22;2886;49.722;8.612;2023-10-08T08:51:33;18.90;93.40
5723;DHT22;2886;49.722;8.612;2023-10-08T08:54:00;18.90;92.70
5723;DHT22;2886;49.722;8.612;2023-10-08T08:56:35;19.00;92.80
5723;DHT22;2886;49.722;8.612;2023-10-08T08:59:04;19.00;92.90
5723;DHT22;2886;49.722;8.612;2023-10-08T09:01:30;18.90;92.70
5723;DHT22;2886;49.722;8.612;2023-10-08T09:04:02;18.90;92.80
5723;DHT22;2886;49.722;8.612;2023-10-08T09:06:37;18.80;93.30
5723;DHT22;2886;49.722;8.612;2023-10-08T09:09:06;18.80;93.10
5723;DHT22;2886;49.722;8.612;2023-10-08T09:11:51;18.80;93.40
5723;DHT22;2886;49.722;8.612;2023-10-08T09:14:20;18.80;92.90
5723;DHT22;2886;49.722;8.612;2023-10-08T09:16:47;18.90;92.90
5723;DHT22;2886;49.722;8.612;2023-10-08T09:19:12;18.90;92.80
5723;DHT22;2886;49.722;8.612;2023-10-08T09:22:02;18.90;92.90
5723;DHT22;2886;49.722;8.612;2023-10-08T09:24:47;19.00;93.20
5723;DHT22;2886;49.722;8.612;2023-10-08T09:27:13;19.20;92.50
5723;DHT22;2886;49.722;8.612;2023-10-08T09:29:44;19.30;92.00
5723;DHT22;2886;49.722;8.612;2023-10-08T09:32:11;19.40;91.70
5723;DHT22;2886;49.722;8.612;2023-10-08T09:34:36;19.60;91.60
5723;DHT22;2886;49.722;8.612;2023-10-08T09:37:02;19.90;90.80
5723;DHT22;2886;49.722;8.612;2023-10-08T09:39:31;20.10;89.00
5723;DHT22;2886;49.722;8.612;2023-10-08T09:42:00;20.20;88.40
5723;DHT22;2886;49.722;8.612;2023-10-08T09:44:28;20.20;87.80
5723;DHT22;2886;49.722;8.612;2023-10-08T09:47:05;20.20;90.00
5723;DHT22;2886;49.722;8.612;2023-10-08T09:49:43;20.20;88.70
5723;DHT22;2886;49.722;8.612;2023-10-08T09:52:11;20.30;88.30
5723;DHT22;2886;49.722;8.612;2023-10-08T09:57:13;20.20;88.50
5723;DHT22;2886;49.722;8.612;2023-10-08T09:59:40;20.40;89.10
5723;DHT22;2886;49.722;8.612;2023-10-08T10:02:06;20.50;86.90
5723;DHT22;2886;49.722;8.612;2023-10-08T10:04:35;20.70;84.70
5723;DHT22;2886;49.722;8.612;2023-10-08T10:07:09;20.80;83.70
5723;DHT22;2886;49.722;8.612;2023-10-08T10:09:38;20.80;84.30
5723;DHT22;2886;49.722;8.612;2023-10-08T10:12:05;20.80;84.90
5723;DHT22;2886;49.722;8.612;2023-10-08T10:14:47;20.90;84.10
5723;DHT22;2886;49.722;8.612;2023-10-08T10:17:26;20.90;83.50
5723;DHT22;2886;49.722;8.612;2023-10-08T10:19:55;20.90;84.10
5723;DHT22;2886;49.722;8.612;2023-10-08T10:22:28;21.10;84.80
5723;DHT22;2886;49.722;8.612;2023-10-08T10:24:56;21.10;83.20
5723;DHT22;2886;49.722;8.612;2023-10-08T10:27:22;21.10;83.10
5723;DHT22;2886;49.722;8.612;2023-10-08T10:29:47;21.20;83.10
5723;DHT22;2886;49.722;8.612;2023-10-08T10:32:15;21.20;81.90
5723;DHT22;2886;49.722;8.612;2023-10-08T10:34:45;21.20;83.20
5723;DHT22;2886;49.722;8.612;2023-10-08T10:37:13;21.10;83.20
5723;DHT22;2886;49.722;8.612;2023-10-08T10:39:55;21.30;82.50
5723;DHT22;2886;49.722;8.612;2023-10-08T10:42:22;21.40;82.00
5723;DHT22;2886;49.722;8.612;2023-10-08T10:44:53;21.50;81.00
5723;DHT22;2886;49.722;8.612;2023-10-08T10:47:24;21.40;81.60
5723;DHT22;2886;49.722;8.612;2023-10-08T10:49:53;21.50;81.50
5723;DHT22;2886;49.722;8.612;2023-10-08T10:52:21;21.40;82.00
5723;DHT22;2886;49.722;8.612;2023-10-08T10:55:06;21.40;82.70
5723;DHT22;2886;49.722;8.612;2023-10-08T10:57:42;21.50;82.30
5723;DHT22;2886;49.722;8.612;2023-10-08T11:00:09;21.50;80.20
5723;DHT22;2886;49.722;8.612;2023-10-08T11:03:05;21.60;80.50
5723;DHT22;2886;49.722;8.612;2023-10-08T11:05:45;21.60;82.40
5723;DHT22;2886;49.722;8.612;2023-10-08T11:08:17;21.70;80.90
5723;DHT22;2886;49.722;8.612;2023-10-08T11:10:44;21.80;80.60
5723;DHT22;2886;49.722;8.612;2023-10-08T11:13:18;21.70;80.10
5723;DHT22;2886;49.722;8.612;2023-10-08T11:15:46;21.60;79.10
5723;DHT22;2886;49.722;8.612;2023-10-08T11:18:20;21.50;80.50
5723;DHT22;2886;49.722;8.612;2023-10-08T11:20:48;21.80;80.40
5723;DHT22;2886;49.722;8.612;2023-10-08T11:25:59;21.90;77.20
5723;DHT22;2886;49.722;8.612;2023-10-08T11:28:35;21.70;78.00
5723;DHT22;2886;49.722;8.612;2023-10-08T11:31:05;21.80;77.00
5723;DHT22;2886;49.722;8.612;2023-10-08T11:33:36;21.80;75.90
5723;DHT22;2886;49.722;8.612;2023-10-08T11:36:03;22.00;77.50
5723;DHT22;2886;49.722;8.612;2023-10-08T11:38:42;22.20;74.80
5723;DHT22;2886;49.722;8.612;2023-10-08T11:41:15;22.00;73.20
5723;DHT22;2886;49.722;8.612;2023-10-08T11:43:50;21.80;75.50
5723;DHT22;2886;49.722;8.612;2023-10-08T11:46:27;21.90;76.00
5723;DHT22;2886;49.722;8.612;2023-10-08T11:48:58;22.00;75.40
5723;DHT22;2886;49.722;8.612;2023-10-08T11:51:30;22.20;76.30
5723;DHT22;2886;49.722;8.612;2023-10-08T11:53:55;22.40;75.40
5723;DHT22;2886;49.722;8.612;2023-10-08T11:56:21;22.70;72.20
5723;DHT22;2886;49.722;8.612;2023-10-08T11:58:48;22.70;74.20
5723;DHT22;2886;49.722;8.612;2023-10-08T12:01:14;22.60;73.80
5723;DHT22;2886;49.722;8.612;2023-10-08T12:03:42;22.40;74.40
5723;DHT22;2886;49.722;8.612;2023-10-08T12:06:12;22.30;74.80
5723;DHT22;2886;49.722;8.612;2023-10-08T12:08:42;22.30;76.20
5723;DHT22;2886;49.722;8.612;2023-10-08T12:11:11;22.30;77.40
5723;DHT22;2886;49.722;8.612;2023-10-08T12:13:38;22.40;74.60
5723;DHT22;2886;49.722;8.612;2023-10-08T12:16:03;22.40;75.10
5723;DHT22;2886;49.722;8.612;2023-10-08T12:18:38;22.30;75.50
5723;DHT22;2886;49.722;8.612;2023-10-08T12:21:08;22.20;77.00
5723;DHT22;2886;49.722;8.612;2023-10-08T12:23:38;22.10;76.90
5723;DHT22;2886;49.722;8.612;2023-10-08T12:26:04;22.10;77.50
5723;DHT22;2886;49.722;8.612;2023-10-08T12:28:33;22.10;78.90
5723;DHT22;2886;49.722;8.612;2023-10-08T12:30:59;22.10;78.50
5723;DHT22;2886;49.722;8.612;2023-10-08T12:33:26;22.20;77.80
5723;DHT22;2886;49.722;8.612;2023-10-08T12:35:56;22.20;77.80
5723;DHT22;2886;49.722;8.612;2023-10-08T12:38:22;22.00;77.30
5723;DHT22;2886;49.722;8.612;2023-10-08T12:40:49;22.00;77.30
5723;DHT22;2886;49.722;8.612;2023-10-08T12:43:19;21.90;78.50
5723;DHT22;2886;49.722;8.612;2023-10-08T12:45:51;21.90;79.60
5723;DHT22;2886;49.722;8.612;2023-10-08T12:48:23;22.00;80.00
5723;DHT22;2886;49.722;8.612;2023-10-08T12:50:50;22.20;78.40
5723;DHT22;2886;49.722;8.612;2023-10-08T12:53:20;22.20;77.90
5723;DHT22;2886;49.722;8.612;2023-10-08T12:55:50;22.20;78.30
5723;DHT22;2886;49.722;8.612;2023-10-08T12:58:20;22.30;76.70
5723;DHT22;2886;49.722;8.612;2023-10-08T13:00:48;22.30;77.30
5723;DHT22;2886;49.722;8.612;2023-10-08T13:03:22;22.40;77.40
5723;DHT22;2886;49.722;8.612;2023-10-08T13:05:52;22.30;76.80
5723;DHT22;2886;49.722;8.612;2023-10-08T13:08:21;22.30;77.70
5723;DHT22;2886;49.722;8.612;2023-10-08T13:10:47;22.30;79.50
5723;DHT22;2886;49.722;8.612;2023-10-08T13:13:13;22.20;78.30
5723;DHT22;2886;49.722;8.612;2023-10-08T13:15:39;22.20;79.00
5723;DHT22;2886;49.722;8.612;2023-10-08T13:18:07;22.10;80.00
5723;DHT22;2886;49.722;8.612;2023-10-08T13:20:33;22.00;80.40
5723;DHT22;2886;49.722;8.612;2023-10-08T13:23:03;22.00;81.20
5723;DHT22;2886;49.722;8.612;2023-10-08T13:25:30;22.00;81.60
5723;DHT22;2886;49.722;8.612;2023-10-08T13:28:01;22.00;81.70
5723;DHT22;2886;49.722;8.612;2023-10-08T13:30:27;22.00;81.50
5723;DHT22;2886;49.722;8.612;2023-10-08T13:32:53;22.10;81.10
5723;DHT22;2886;49.722;8.612;2023-10-08T13:35:19;22.10;81.40
5723;DHT22;2886;49.722;8.612;2023-10-08T13:37:45;22.20;81.70
5723;DHT22;2886;49.722;8.612;2023-10-08T13:40:14;22.20;80.20
5723;DHT22;2886;49.722;8.612;2023-10-08T13:42:42;22.20;79.40
5723;DHT22;2886;49.722;8.612;2023-10-08T13:45:08;22.20;79.90
5723;DHT22;2886;49.722;8.612;2023-10-08T13:47:34;22.10;81.10
5723;DHT22;2886;49.722;8.612;2023-10-08T13:50:00;22.00;81.30
5723;DHT22;2886;49.722;8.612;2023-10-08T13:52:31;22.00;82.10
5723;DHT22;2886;49.722;8.612;2023-10-08T13:54:59;21.90;83.50
5723;DHT22;2886;49.722;8.612;2023-10-08T13:57:25;21.90;83.50
5723;DHT22;2886;49.722;8.612;2023-10-08T13:59:52;21.80;82.30
5723;DHT22;2886;49.722;8.612;2023-10-08T14:02:18;21.80;82.40
5723;DHT22;2886;49.722;8.612;2023-10-08T14:04:47;21.80;81.70
5723;DHT22;2886;49.722;8.612;2023-10-08T14:07:16;21.80;81.80
5723;DHT22;2886;49.722;8.612;2023-10-08T14:09:45;21.80;82.00
5723;DHT22;2886;49.722;8.612;2023-10-08T14:12:12;21.90;81.70
5723;DHT22;2886;49.722;8.612;2023-10-08T14:14:39;22.00;81.70
5723;DHT22;2886;49.722;8.612;2023-10-08T14:17:09;22.10;80.80
5723;DHT22;2886;49.722;8.612;2023-10-08T14:19:43;22.00;82.00
5723;DHT22;2886;49.722;8.612;2023-10-08T14:22:12;22.00;81.90
5723;DHT22;2886;49.722;8.612;2023-10-08T14:24:42;22.00;81.50
5723;DHT22;2886;49.722;8.612;2023-10-08T14:27:10;22.00;82.00
5723;DHT22;2886;49.722;8.612;2023-10-08T14:29:40;22.00;82.70
5723;DHT22;2886;49.722;8.612;2023-10-08T14:32:06;22.10;83.60
5723;DHT22;2886;49.722;8.612;2023-10-08T14:34:35;22.20;82.60
5723;DHT22;2886;49.722;8.612;2023-10-08T14:37:13;22.20;82.50
5723;DHT22;2886;49.722;8.612;2023-10-08T14:39:58;22.30;84.70
5723;DHT22;2886;49.722;8.612;2023-10-08T14:42:42;22.40;81.90
5723;DHT22;2886;49.722;8.612;2023-10-08T14:45:34;22.50;78.90
5723;DHT22;2886;49.722;8.612;2023-10-08T14:48:04;22.50;80.40
5723;DHT22;2886;49.722;8.612;2023-10-08T14:50:36;22.50;79.80
5723;DHT22;2886;49.722;8.612;2023-10-08T14:53:04;22.50;80.30
5723;DHT22;2886;49.722;8.612;2023-10-08T14:55:31;22.60;78.80
5723;DHT22;2886;49.722;8.612;2023-10-08T14:58:00;22.60;78.70
5723;DHT22;2886;49.722;8.612;2023-10-08T15:00:33;22.70;77.80
5723;DHT22;2886;49.722;8.612;2023-10-08T15:03:01;22.70;77.70
5723;DHT22;2886;49.722;8.612;2023-10-08T15:05:28;22.80;77.70
5723;DHT22;2886;49.722;8.612;2023-10-08T15:07:55;22.90;75.50
5723;DHT22;2886;49.722;8.612;2023-10-08T15:10:21;22.90;75.30
5723;DHT22;2886;49.722;8.612;2023-10-08T15:12:47;22.90;75.60
5723;DHT22;2886;49.722;8.612;2023-10-08T15:15:13;22.90;75.60
5723;DHT22;2886;49.722;8.612;2023-10-08T15:17:45;22.90;76.60
5723;DHT22;2886;49.722;8.612;2023-10-08T15:20:13;22.90;76.40
5723;DHT22;2886;49.722;8.612;2023-10-08T15:22:47;23.10;74.10
5723;DHT22;2886;49.722;8.612;2023-10-08T15:25:16;23.10;73.40
5723;DHT22;2886;49.722;8.612;2023-10-08T15:27:45;23.00;74.60
5723;DHT22;2886;49.722;8.612;2023-10-08T15:30:15;23.00;74.00
5723;DHT22;2886;49.722;8.612;2023-10-08T15:32:42;23.00;74.50
5723;DHT22;2886;49.722;8.612;2023-10-08T15:35:16;22.90;75.10
5723;DHT22;2886;49.722;8.612;2023-10-08T15:37:46;22.90;75.60
5723;DHT22;2886;49.722;8.612;2023-10-08T15:40:13;23.00;75.50
5723;DHT22;2886;49.722;8.612;2023-10-08T15:42:49;23.00;72.40
5723;DHT22;2886;49.722;8.612;2023-10-08T15:45:17;22.90;72.30
5723;DHT22;2886;49.722;8.612;2023-10-08T15:47:43;22.80;73.80
5723;DHT22;2886;49.722;8.612;2023-10-08T15:50:09;22.80;75.80
5723;DHT22;2886;49.722;8.612;2023-10-08T15:52:38;22.90;77.80
5723;DHT22;2886;49.722;8.612;2023-10-08T15:55:05;22.90;77.40
5723;DHT22;2886;49.722;8.612;2023-10-08T15:57:31;22.80;77.20
5723;DHT22;2886;49.722;8.612;2023-10-08T15:59:57;22.70;77.30
5723;DHT22;2886;49.722;8.612;2023-10-08T16:02:23;22.60;78.60
5723;DHT22;2886;49.722;8.612;2023-10-08T16:04:48;22.50;81.20
5723;DHT22;2886;49.722;8.612;2023-10-08T16:07:14;22.40;81.50
5723;DHT22;2886;49.722;8.612;2023-10-08T16:09:40;22.30;82.40
5723;DHT22;2886;49.722;8.612;2023-10-08T16:12:08;22.20;83.40
5723;DHT22;2886;49.722;8.612;2023-10-08T16:14:34;22.20;83.40
5723;DHT22;2886;49.722;8.612;2023-10-08T16:17:00;22.00;83.30
5723;DHT22;2886;49.722;8.612;2023-10-08T16:19:29;21.90;83.30
5723;DHT22;2886;49.722;8.612;2023-10-08T16:21:57;21.80;83.50
5723;DHT22;2886;49.722;8.612;2023-10-08T16:24:22;21.70;84.40
5723;DHT22;2886;49.722;8.612;2023-10-08T16:26:51;21.60;87.90
5723;DHT22;2886;49.722;8.612;2023-10-08T16:29:20;21.50;86.00
5723;DHT22;2886;49.722;8.612;2023-10-08T16:31:46;21.50;87.60